Time;durP1;ratioP1;P1;durP2;ratioP2;P2;SDS_P1;SDS_P2;PMS_P1;PMS_P2;Temp;Humidity;BMP_temperature;BMP_pressure;BME280_temperature;BME280_humidity;BME280_pressure;Samples;Min_cycle;Max_cycle;Signal;HPM_P1;HPM_P2
2023/05/07 00:01:07;;;;;;;8.40;5.97;;;17.10;99.90;;;;;;5120611;27;20395;-73
2023/05/07 00:03:33;;;;;;;6.80;6.07;;;17.10;99.90;;;;;;5123962;27;20022;-73
2023/05/07 00:05:58;;;;;;;9.55;6.60;;;17.10;99.90;;;;;;5106878;27;20020;-73
2023/05/07 00:08:24;;;;;;;7.18;6.45;;;17.20;99.90;;;;;;5104174;27;20104;-72
2023/05/07 00:10:50;;;;;;;7.10;5.93;;;17.20;99.90;;;;;;5126098;27;20226;-72
2023/05/07 00:13:16;;;;;;;14.68;6.00;;;17.20;99.90;;;;;;5122343;27;20104;-72
2023/05/07 00:15:42;;;;;;;7.85;6.28;;;17.20;99.90;;;;;;5122870;27;20020;-72
2023/05/07 00:18:08;;;;;;;8.05;6.45;;;17.20;99.90;;;;;;5126105;27;20027;-72
2023/05/07 00:20:33;;;;;;;7.03;5.78;;;17.20;99.90;;;;;;5123936;27;20027;-72
2023/05/07 00:22:59;;;;;;;8.65;7.72;;;17.20;99.90;;;;;;5122121;27;20059;-72
2023/05/07 00:25:25;;;;;;;9.10;6.72;;;17.20;99.90;;;;;;5122710;27;20038;-73
2023/05/07 00:27:51;;;;;;;7.28;6.57;;;17.20;99.90;;;;;;5123414;27;20483;-72
2023/05/07 00:30:16;;;;;;;8.45;6.68;;;17.20;99.90;;;;;;5120320;27;20035;-71
2023/05/07 00:32:45;;;;;;;8.13;6.43;;;17.20;99.90;;;;;;5121225;27;20542;-73
2023/05/07 00:35:11;;;;;;;8.52;7.47;;;17.20;99.90;;;;;;5121422;27;20498;-72
2023/05/07 00:37:37;;;;;;;7.82;7.05;;;17.20;99.90;;;;;;5121668;27;20019;-72
2023/05/07 00:40:06;;;;;;;8.65;6.70;;;17.20;99.90;;;;;;5121233;27;20030;-72
2023/05/07 00:42:32;;;;;;;8.57;6.38;;;17.20;99.90;;;;;;5125171;27;20031;-72
2023/05/07 00:44:58;;;;;;;9.35;7.03;;;17.20;99.90;;;;;;5123290;27;20459;-71
2023/05/07 00:47:25;;;;;;;7.97;7.00;;;17.20;99.90;;;;;;5120566;27;20027;-73
2023/05/07 00:49:51;;;;;;;11.70;7.80;;;17.20;99.90;;;;;;5123205;27;20023;-72
2023/05/07 00:52:19;;;;;;;9.75;7.30;;;17.20;99.90;;;;;;5121730;27;20026;-72
2023/05/07 00:54:45;;;;;;;9.45;7.65;;;17.20;99.90;;;;;;5120791;27;20434;-72
2023/05/07 00:57:11;;;;;;;10.07;7.32;;;17.20;99.90;;;;;;5102969;28;20015;-72
2023/05/07 00:59:37;;;;;;;9.02;7.03;;;17.10;99.90;;;;;;5101176;28;20065;-72
2023/05/07 01:02:03;;;;;;;7.18;6.45;;;17.10;99.90;;;;;;5131006;28;20023;-73
2023/05/07 01:04:29;;;;;;;6.97;6.32;;;17.10;99.90;;;;;;5123147;28;20031;-72
2023/05/07 01:06:56;;;;;;;7.25;6.32;;;17.00;99.90;;;;;;5122425;28;20016;-72
2023/05/07 01:09:24;;;;;;;9.70;7.35;;;17.10;99.90;;;;;;5114631;28;20020;-72
2023/05/07 01:11:51;;;;;;;8.80;6.97;;;17.10;99.90;;;;;;5133403;28;20110;-72
2023/05/07 01:14:18;;;;;;;9.25;8.38;;;17.00;99.90;;;;;;5132282;28;20440;-72
2023/05/07 01:16:44;;;;;;;11.15;8.70;;;17.00;99.90;;;;;;5133434;28;20114;-72
2023/05/07 01:19:13;;;;;;;8.73;7.93;;;17.00;99.90;;;;;;5132320;28;20126;-71
2023/05/07 01:21:38;;;;;;;8.18;7.18;;;17.10;99.90;;;;;;5132877;28;20023;-72
2023/05/07 01:24:05;;;;;;;9.30;7.30;;;17.00;99.90;;;;;;5132881;28;20031;-72
2023/05/07 01:26:31;;;;;;;13.00;8.38;;;17.00;99.90;;;;;;5114452;28;20355;-71
2023/05/07 01:28:56;;;;;;;10.15;8.20;;;17.00;99.90;;;;;;5132369;28;20034;-71
2023/05/07 01:31:24;;;;;;;8.93;8.05;;;17.00;99.90;;;;;;5133196;28;20106;-72
2023/05/07 01:33:50;;;;;;;9.48;8.00;;;17.10;99.90;;;;;;5132385;28;20019;-72
2023/05/07 01:36:18;;;;;;;8.88;7.85;;;17.00;99.90;;;;;;5114852;28;20027;-72
2023/05/07 01:38:45;;;;;;;10.55;8.07;;;17.00;99.90;;;;;;5132666;28;20106;-72
2023/05/07 01:41:12;;;;;;;11.07;9.38;;;17.00;99.90;;;;;;5132571;28;20023;-72
2023/05/07 01:43:39;;;;;;;9.23;8.32;;;17.00;99.90;;;;;;5132185;27;20027;-72
2023/05/07 01:46:05;;;;;;;9.52;8.43;;;17.00;99.90;;;;;;5136241;27;20015;-72
2023/05/07 01:48:33;;;;;;;9.70;7.90;;;16.90;99.90;;;;;;5136196;27;20479;-72
2023/05/07 01:51:00;;;;;;;13.50;9.20;;;17.00;99.90;;;;;;5136063;27;20026;-72
2023/05/07 01:53:28;;;;;;;13.75;9.60;;;17.00;99.90;;;;;;5135999;27;20019;-72
2023/05/07 01:55:53;;;;;;;12.00;10.77;;;16.90;99.90;;;;;;5136734;27;20070;-72
2023/05/07 01:58:19;;;;;;;14.77;12.45;;;16.90;99.90;;;;;;5117535;27;20564;-72
2023/05/07 02:00:45;;;;;;;13.82;12.38;;;16.90;99.90;;;;;;5136657;27;20478;-72
2023/05/07 02:03:10;;;;;;;11.80;10.60;;;16.80;99.90;;;;;;5118055;27;20027;-71
2023/05/07 02:05:36;;;;;;;13.23;10.10;;;16.90;99.90;;;;;;5135990;27;20047;-72
2023/05/07 02:08:02;;;;;;;11.45;7.95;;;16.80;99.90;;;;;;5135534;27;20030;-72
2023/05/07 02:10:27;;;;;;;10.07;7.72;;;16.80;99.90;;;;;;5135565;27;20522;-71
2023/05/07 02:12:53;;;;;;;10.45;8.38;;;16.80;99.90;;;;;;5135991;27;20107;-72
2023/05/07 02:15:19;;;;;;;10.13;7.50;;;16.80;99.90;;;;;;5135780;27;20550;-72
2023/05/07 02:18:06;;;;;;;9.98;8.02;;;16.80;99.90;;;;;;5135325;27;20027;-72
2023/05/07 02:20:32;;;;;;;8.82;7.88;;;16.80;99.90;;;;;;5135667;27;20506;-72
2023/05/07 02:22:58;;;;;;;11.60;10.23;;;16.80;99.90;;;;;;5135262;27;20026;-72
2023/05/07 02:25:24;;;;;;;15.10;11.70;;;16.80;99.90;;;;;;5134616;27;20071;-72
2023/05/07 02:27:49;;;;;;;12.40;11.07;;;16.80;99.90;;;;;;5135852;27;20490;-72
2023/05/07 02:30:15;;;;;;;14.48;12.18;;;16.90;99.90;;;;;;5136247;27;20024;-72
2023/05/07 02:32:41;;;;;;;15.25;13.75;;;16.80;99.90;;;;;;5135880;27;20379;-72
2023/05/07 02:35:07;;;;;;;14.30;12.82;;;16.90;99.90;;;;;;5135306;27;20144;-72
2023/05/07 02:37:33;;;;;;;12.85;11.63;;;16.80;99.90;;;;;;5133148;27;20532;-72
2023/05/07 02:39:58;;;;;;;12.38;11.10;;;16.80;99.90;;;;;;5135846;27;20027;-72
2023/05/07 02:42:24;;;;;;;15.75;13.73;;;16.80;99.90;;;;;;5117524;27;20384;-72
2023/05/07 02:44:50;;;;;;;15.05;13.45;;;16.80;99.90;;;;;;5134630;27;20352;-72
2023/05/07 02:47:15;;;;;;;18.90;16.30;;;16.80;99.90;;;;;;5134869;27;20357;-72
2023/05/07 02:49:41;;;;;;;15.32;12.73;;;16.80;99.90;;;;;;5134205;27;20471;-72
2023/05/07 02:52:07;;;;;;;15.27;13.77;;;16.80;99.90;;;;;;5134514;27;20027;-72
2023/05/07 02:54:33;;;;;;;17.88;14.52;;;16.80;99.90;;;;;;5135701;27;20426;-72
2023/05/07 02:57:00;;;;;;;18.33;16.08;;;16.80;99.90;;;;;;5135450;27;20463;-72
2023/05/07 02:59:26;;;;;;;22.23;17.58;;;16.80;99.90;;;;;;5116872;27;20088;-72
2023/05/07 03:01:52;;;;;;;20.17;15.65;;;16.80;99.90;;;;;;5135646;27;20023;-72
2023/05/07 03:04:17;;;;;;;22.25;17.55;;;16.80;99.90;;;;;;5134308;27;20487;-72
2023/05/07 03:06:43;;;;;;;16.58;14.93;;;16.70;99.90;;;;;;5114580;27;20015;-72
2023/05/07 03:09:09;;;;;;;17.38;15.57;;;16.70;99.90;;;;;;5134972;27;20027;-73
2023/05/07 03:11:35;;;;;;;16.58;14.77;;;16.70;99.90;;;;;;5134425;27;20023;-72
2023/05/07 03:14:01;;;;;;;20.63;17.83;;;16.70;99.90;;;;;;5135048;27;20015;-72
2023/05/07 03:16:27;;;;;;;19.58;15.93;;;16.70;99.90;;;;;;5135405;27;20497;-72
2023/05/07 03:18:53;;;;;;;19.55;17.45;;;16.70;99.90;;;;;;5134434;27;20035;-72
2023/05/07 03:21:19;;;;;;;24.30;18.52;;;16.70;99.90;;;;;;5134668;27;20103;-72
2023/05/07 03:23:45;;;;;;;21.77;17.98;;;16.60;99.90;;;;;;5116249;27;20111;-72
2023/05/07 03:26:10;;;;;;;20.13;16.75;;;16.60;99.90;;;;;;5134285;27;20043;-72
2023/05/07 03:28:37;;;;;;;17.70;15.23;;;16.60;99.90;;;;;;5116480;27;20034;-72
2023/05/07 03:31:02;;;;;;;15.63;13.95;;;16.60;99.90;;;;;;5134222;27;20012;-72
2023/05/07 03:33:28;;;;;;;16.90;15.20;;;16.70;99.90;;;;;;5115581;27;20022;-72
2023/05/07 03:35:54;;;;;;;17.00;14.85;;;16.60;99.90;;;;;;5134688;27;20027;-72
2023/05/07 03:38:19;;;;;;;16.63;14.52;;;16.70;99.90;;;;;;5133536;27;20046;-72
2023/05/07 03:40:45;;;;;;;14.85;13.20;;;16.70;99.90;;;;;;5134755;27;20509;-72
2023/05/07 03:43:11;;;;;;;15.50;13.50;;;16.60;99.90;;;;;;5133889;27;20063;-73
2023/05/07 03:45:37;;;;;;;16.95;14.40;;;16.60;99.90;;;;;;5134729;27;20019;-72
2023/05/07 03:48:02;;;;;;;16.48;13.82;;;16.60;99.90;;;;;;5133519;27;20034;-72
2023/05/07 03:50:28;;;;;;;17.58;13.77;;;16.60;99.90;;;;;;5134635;27;20073;-72
2023/05/07 03:52:54;;;;;;;17.00;14.90;;;16.70;99.90;;;;;;5134394;27;20038;-72
2023/05/07 03:55:20;;;;;;;20.80;17.77;;;16.60;99.90;;;;;;5134425;27;20027;-72
2023/05/07 03:57:45;;;;;;;18.02;16.17;;;16.60;99.90;;;;;;5115984;27;20046;-72
2023/05/07 04:00:12;;;;;;;17.92;15.63;;;16.60;99.90;;;;;;5134404;27;20031;-72
2023/05/07 04:02:37;;;;;;;19.95;17.30;;;16.60;99.90;;;;;;5133093;27;20015;-72
2023/05/07 04:05:03;;;;;;;20.55;16.70;;;16.60;99.90;;;;;;5132061;27;20030;-73
2023/05/07 04:07:29;;;;;;;19.33;16.65;;;16.60;99.90;;;;;;5133052;27;20025;-72
2023/05/07 04:09:54;;;;;;;21.10;17.42;;;16.60;99.90;;;;;;5133809;27;20467;-72
2023/05/07 04:12:20;;;;;;;20.05;17.75;;;16.60;99.90;;;;;;5132510;27;20031;-72
2023/05/07 04:14:46;;;;;;;20.30;15.70;;;16.70;99.90;;;;;;5133467;27;20479;-73
2023/05/07 04:17:11;;;;;;;21.90;18.05;;;16.60;99.90;;;;;;5132874;27;20030;-72
2023/05/07 04:19:37;;;;;;;20.33;18.17;;;16.60;99.90;;;;;;5133669;27;20501;-72
2023/05/07 04:22:03;;;;;;;19.75;16.35;;;16.50;99.90;;;;;;5133064;27;20094;-72
2023/05/07 04:24:32;;;;;;;18.48;16.52;;;16.60;99.90;;;;;;5132819;27;20102;-72
2023/05/07 04:26:58;;;;;;;23.00;20.27;;;16.60;99.90;;;;;;5134128;27;20061;-72
2023/05/07 04:29:24;;;;;;;24.83;21.40;;;16.60;99.90;;;;;;5115010;27;20051;-72
2023/05/07 04:31:50;;;;;;;24.25;20.80;;;16.60;99.90;;;;;;5133269;27;20029;-72
2023/05/07 04:34:15;;;;;;;23.17;19.75;;;16.60;99.90;;;;;;5114387;27;20467;-72
2023/05/07 04:36:42;;;;;;;28.30;20.77;;;16.60;99.90;;;;;;5132958;27;20031;-72
2023/05/07 04:39:08;;;;;;;32.83;24.83;;;16.60;99.90;;;;;;5133560;27;20447;-72
2023/05/07 04:41:36;;;;;;;40.10;30.38;;;16.40;99.90;;;;;;5133646;27;20102;-72
2023/05/07 04:44:04;;;;;;;41.25;31.00;;;16.50;99.90;;;;;;5133655;27;20161;-72
2023/05/07 04:46:30;;;;;;;34.78;28.20;;;16.50;99.90;;;;;;5123945;27;20027;-73
2023/05/07 04:48:56;;;;;;;32.13;24.92;;;16.50;99.90;;;;;;5133388;27;20477;-72
2023/05/07 04:51:22;;;;;;;34.08;26.05;;;16.50;99.90;;;;;;5133483;27;20038;-72
2023/05/07 04:53:48;;;;;;;37.80;25.95;;;16.40;99.90;;;;;;5133052;27;20475;-72
2023/05/07 04:56:14;;;;;;;27.65;22.75;;;16.50;99.90;;;;;;5121813;27;20032;-72
2023/05/07 04:58:40;;;;;;;36.75;28.30;;;16.60;99.90;;;;;;5112605;28;20043;-73
2023/05/07 05:01:05;;;;;;;35.53;25.50;;;16.60;99.90;;;;;;5094095;28;20020;-72
2023/05/07 05:03:31;;;;;;;33.40;25.45;;;16.60;99.90;;;;;;5112061;28;20437;-72
2023/05/07 05:05:59;;;;;;;33.50;26.90;;;16.60;99.90;;;;;;5111287;28;20023;-73
2023/05/07 05:08:25;;;;;;;40.20;33.13;;;16.70;99.90;;;;;;5115171;28;20043;-72
2023/05/07 05:10:51;;;;;;;37.88;28.25;;;16.70;99.90;;;;;;5118982;28;20051;-73
2023/05/07 05:13:17;;;;;;;32.78;27.20;;;16.70;99.90;;;;;;5112040;28;20066;-72
2023/05/07 05:15:43;;;;;;;33.88;26.15;;;16.80;99.90;;;;;;5110675;28;20028;-72
2023/05/07 05:18:08;;;;;;;35.55;29.00;;;16.80;99.90;;;;;;5115528;27;20073;-72
2023/05/07 05:20:34;;;;;;;43.30;31.77;;;16.80;99.90;;;;;;5137334;27;20031;-73
2023/05/07 05:23:00;;;;;;;45.50;33.58;;;16.80;99.90;;;;;;5137411;27;20092;-72
2023/05/07 05:25:26;;;;;;;42.08;31.42;;;16.80;99.90;;;;;;5136298;27;20045;-72
2023/05/07 05:27:51;;;;;;;37.40;29.60;;;16.70;99.90;;;;;;5136980;27;20494;-72
2023/05/07 05:30:17;;;;;;;53.65;36.60;;;16.70;99.90;;;;;;5136561;27;20015;-72
2023/05/07 05:32:43;;;;;;;40.00;30.27;;;16.80;99.90;;;;;;5136839;27;20046;-72
2023/05/07 05:35:08;;;;;;;47.28;34.05;;;16.90;99.90;;;;;;5135334;27;20387;-73
2023/05/07 05:37:34;;;;;;;43.53;35.30;;;16.90;99.90;;;;;;5137006;27;20501;-72
2023/05/07 05:40:00;;;;;;;50.90;39.28;;;17.00;99.90;;;;;;5118090;27;20118;-72
2023/05/07 05:42:25;;;;;;;38.28;30.65;;;17.00;99.90;;;;;;5128645;27;20390;-73
2023/05/07 05:44:51;;;;;;;46.40;34.22;;;17.00;99.90;;;;;;5097773;28;20466;-72
2023/05/07 05:47:17;;;;;;;38.92;31.25;;;17.10;99.90;;;;;;5121061;27;20679;-72
2023/05/07 05:49:43;;;;;;;37.53;30.23;;;17.10;99.90;;;;;;5115704;28;20695;-72
2023/05/07 05:52:09;;;;;;;46.90;31.85;;;17.20;99.90;;;;;;5115056;28;20467;-72
2023/05/07 05:54:35;;;;;;;38.72;28.55;;;17.20;99.90;;;;;;5114832;28;20019;-72
2023/05/07 05:57:03;;;;;;;42.47;31.80;;;17.30;99.90;;;;;;5115762;28;20034;-73
2023/05/07 05:59:29;;;;;;;47.17;33.25;;;17.30;99.90;;;;;;5096766;28;20502;-73
2023/05/07 06:01:55;;;;;;;46.35;34.80;;;17.30;99.90;;;;;;5125043;27;20016;-73
2023/05/07 06:04:21;;;;;;;43.50;33.15;;;17.30;99.90;;;;;;5136103;27;20102;-73
2023/05/07 06:06:46;;;;;;;48.17;33.97;;;17.40;99.90;;;;;;5135892;27;20034;-73
2023/05/07 06:09:12;;;;;;;41.40;33.92;;;17.40;99.90;;;;;;5135813;27;20055;-73
2023/05/07 06:11:38;;;;;;;44.17;33.53;;;17.40;99.90;;;;;;5136152;27;20485;-72
2023/05/07 06:14:03;;;;;;;47.85;36.65;;;17.50;99.90;;;;;;5136011;27;20563;-73
2023/05/07 06:16:29;;;;;;;49.25;36.25;;;17.50;99.90;;;;;;5135078;27;20027;-73
2023/05/07 06:18:55;;;;;;;50.03;37.67;;;17.50;99.90;;;;;;5136341;27;20034;-73
2023/05/07 06:21:21;;;;;;;38.95;30.63;;;17.50;99.90;;;;;;5135521;27;20106;-73
2023/05/07 06:23:46;;;;;;;36.72;30.25;;;17.50;99.90;;;;;;5135988;27;20056;-73
2023/05/07 06:26:12;;;;;;;33.22;27.35;;;17.50;99.90;;;;;;5136106;27;20026;-73
2023/05/07 06:28:38;;;;;;;34.72;27.65;;;17.50;99.90;;;;;;5134856;27;20018;-73
2023/05/07 06:31:14;;;;;;;34.75;27.83;;;17.60;99.90;;;;;;5135090;27;20055;-73
2023/05/07 06:33:40;;;;;;;29.20;25.52;;;17.50;99.90;;;;;;5136124;27;20023;-73
2023/05/07 06:36:06;;;;;;;34.72;25.45;;;17.50;99.90;;;;;;5136081;27;20019;-73
2023/05/07 06:38:32;;;;;;;34.15;26.90;;;17.60;99.90;;;;;;5116684;27;20041;-74
2023/05/07 06:40:57;;;;;;;30.02;26.67;;;17.60;99.90;;;;;;5130478;27;20028;-73
2023/05/07 06:43:23;;;;;;;29.00;24.90;;;17.70;99.90;;;;;;5114785;28;20432;-74
2023/05/07 06:45:49;;;;;;;26.33;22.95;;;17.70;99.90;;;;;;5113034;28;20089;-73
2023/05/07 06:48:14;;;;;;;27.52;23.67;;;17.70;99.90;;;;;;5096969;28;20528;-73
2023/05/07 06:50:41;;;;;;;29.73;26.05;;;17.70;99.90;;;;;;5096480;28;20472;-73
2023/05/07 06:53:07;;;;;;;31.60;26.38;;;17.80;99.90;;;;;;5113764;28;20049;-74
2023/05/07 06:55:32;;;;;;;28.33;23.27;;;17.70;99.90;;;;;;5114442;28;20383;-73
2023/05/07 06:58:00;;;;;;;31.73;25.20;;;17.80;99.90;;;;;;5094672;28;20016;-74
2023/05/07 07:00:27;;;;;;;32.78;25.75;;;17.80;99.90;;;;;;5117620;27;20037;-73
2023/05/07 07:02:55;;;;;;;31.00;23.52;;;17.90;99.90;;;;;;5135023;27;20029;-74
2023/05/07 07:05:20;;;;;;;28.50;24.13;;;18.00;99.90;;;;;;5129138;27;20075;-74
2023/05/07 07:07:52;;;;;;;29.20;25.65;;;17.90;99.90;;;;;;5114923;28;20016;-74
2023/05/07 07:10:19;;;;;;;30.08;24.40;;;18.00;99.90;;;;;;5123062;27;20023;-74
2023/05/07 07:12:45;;;;;;;30.77;24.25;;;18.10;99.90;;;;;;5116523;27;20064;-74
2023/05/07 07:15:16;;;;;;;24.33;19.92;;;18.10;99.90;;;;;;5117086;27;20110;-74
2023/05/07 07:17:43;;;;;;;30.55;25.42;;;18.10;99.90;;;;;;5108726;27;20035;-74
2023/05/07 07:20:12;;;;;;;27.98;24.33;;;18.10;99.90;;;;;;5127238;27;20053;-74
2023/05/07 07:22:38;;;;;;;28.10;23.55;;;18.20;99.90;;;;;;5122576;27;20023;-74
2023/05/07 07:25:04;;;;;;;29.08;22.65;;;18.20;99.90;;;;;;5106507;27;20026;-74
2023/05/07 07:27:30;;;;;;;30.10;23.63;;;18.20;99.90;;;;;;5122687;27;20546;-74
2023/05/07 07:29:55;;;;;;;29.23;24.25;;;18.30;99.90;;;;;;5122547;27;20033;-74
2023/05/07 07:32:21;;;;;;;35.75;27.65;;;18.20;99.90;;;;;;5133447;27;20471;-74
2023/05/07 07:34:47;;;;;;;36.03;26.30;;;18.30;99.90;;;;;;5127889;27;20027;-74
2023/05/07 07:37:12;;;;;;;30.48;25.27;;;18.40;99.90;;;;;;5134149;27;20391;-75
2023/05/07 07:39:38;;;;;;;31.90;24.45;;;18.40;99.90;;;;;;5131361;27;20039;-74
2023/05/07 07:42:04;;;;;;;32.22;24.63;;;18.50;99.90;;;;;;5123341;27;20509;-75
2023/05/07 07:44:30;;;;;;;26.45;23.58;;;18.50;99.90;;;;;;5128133;27;20038;-74
2023/05/07 07:46:55;;;;;;;31.10;24.27;;;18.50;99.90;;;;;;5124102;27;20026;-75
2023/05/07 07:49:21;;;;;;;27.73;21.73;;;18.50;99.90;;;;;;5105395;27;20030;-75
2023/05/07 07:51:47;;;;;;;29.13;24.45;;;18.50;99.90;;;;;;5122203;27;20015;-75
2023/05/07 07:54:13;;;;;;;29.23;23.50;;;18.50;99.90;;;;;;5123226;27;20027;-75
2023/05/07 07:56:38;;;;;;;28.17;24.17;;;18.50;99.90;;;;;;5124482;27;20019;-74
2023/05/07 07:59:04;;;;;;;30.25;23.83;;;18.60;99.90;;;;;;5122449;27;20108;-74
2023/05/07 08:01:30;;;;;;;26.63;23.13;;;18.50;99.90;;;;;;5121066;27;20034;-75
2023/05/07 08:03:58;;;;;;;26.55;21.85;;;18.50;99.90;;;;;;5096258;28;20549;-75
2023/05/07 08:06:25;;;;;;;24.83;22.17;;;18.50;99.90;;;;;;5112322;27;20032;-75
2023/05/07 08:08:51;;;;;;;30.52;25.23;;;18.60;99.90;;;;;;5100030;27;20020;-74
2023/05/07 08:11:17;;;;;;;29.75;24.40;;;18.70;99.90;;;;;;5124777;27;20079;-76
2023/05/07 08:13:50;;;;;;;32.20;23.23;;;18.70;99.90;;;;;;5056786;27;1341034;-75
2023/05/07 08:16:16;;;;;;;28.10;22.73;;;18.80;99.90;;;;;;5080804;28;20373;-74
2023/05/07 08:18:42;;;;;;;33.88;25.38;;;18.80;99.90;;;;;;5078349;28;20028;-74
2023/05/07 08:21:08;;;;;;;32.47;23.23;;;18.90;99.90;;;;;;5080817;28;20027;-76
2023/05/07 08:23:34;;;;;;;24.80;22.15;;;19.00;99.90;;;;;;5081196;28;20028;-75
2023/05/07 08:26:00;;;;;;;26.25;20.95;;;19.10;99.90;;;;;;5082468;28;20024;-75
2023/05/07 08:28:26;;;;;;;28.55;21.70;;;19.00;99.90;;;;;;5080898;28;20032;-75
2023/05/07 08:30:52;;;;;;;29.45;21.55;;;19.10;99.90;;;;;;5080985;28;20358;-75
2023/05/07 08:33:17;;;;;;;21.55;17.90;;;19.10;99.90;;;;;;5070943;28;20565;-75
2023/05/07 08:35:43;;;;;;;21.88;17.50;;;19.10;99.90;;;;;;5071907;28;20521;-75
2023/05/07 08:38:09;;;;;;;23.33;16.75;;;19.20;99.90;;;;;;5063536;28;20094;-75
2023/05/07 08:40:40;;;;;;;20.15;17.42;;;19.40;99.90;;;;;;5074908;28;20028;-74
2023/05/07 08:43:07;;;;;;;19.77;16.13;;;19.60;99.90;;;;;;5069572;28;20127;-75
2023/05/07 08:45:34;;;;;;;25.23;18.15;;;19.80;99.90;;;;;;5070522;28;20025;-75
2023/05/07 08:48:03;;;;;;;18.15;14.90;;;19.90;99.90;;;;;;5065082;28;20530;-75
2023/05/07 08:50:29;;;;;;;19.42;16.17;;;20.10;99.90;;;;;;5063517;28;20028;-75
2023/05/07 08:52:56;;;;;;;18.75;14.65;;;20.00;99.90;;;;;;5065543;28;20033;-75
2023/05/07 08:55:25;;;;;;;20.65;16.17;;;20.10;99.90;;;;;;5072296;28;20028;-75
2023/05/07 08:57:52;;;;;;;16.73;14.75;;;20.30;99.90;;;;;;5068154;28;20467;-75
2023/05/07 09:00:18;;;;;;;17.45;14.73;;;20.30;99.90;;;;;;5068064;28;20120;-75
2023/05/07 09:02:44;;;;;;;19.13;14.45;;;20.40;99.90;;;;;;5057648;28;20111;-76
2023/05/07 09:05:10;;;;;;;17.27;15.48;;;20.50;99.90;;;;;;5070280;28;20039;-75
2023/05/07 09:07:35;;;;;;;23.92;20.60;;;20.50;99.90;;;;;;5054181;28;20476;-76
2023/05/07 09:10:03;;;;;;;17.17;15.27;;;20.50;99.90;;;;;;5069308;28;20025;-75
2023/05/07 09:12:29;;;;;;;19.02;14.32;;;20.50;99.90;;;;;;5073614;28;20051;-75
2023/05/07 09:14:55;;;;;;;17.00;14.23;;;20.50;99.90;;;;;;5068277;28;20476;-75
2023/05/07 09:17:21;;;;;;;15.35;13.13;;;20.50;99.90;;;;;;5055155;28;20021;-76
2023/05/07 09:19:47;;;;;;;14.63;10.60;;;20.60;99.90;;;;;;5068256;28;20025;-75
2023/05/07 09:22:13;;;;;;;15.70;13.23;;;20.70;99.90;;;;;;5074662;28;20114;-75
2023/05/07 09:24:39;;;;;;;14.55;10.88;;;20.60;99.90;;;;;;5062736;28;20105;-75
2023/05/07 09:27:05;;;;;;;15.95;10.93;;;20.60;99.90;;;;;;5061213;28;20469;-75
2023/05/07 09:29:37;;;;;;;12.73;10.98;;;20.80;99.90;;;;;;5051724;28;20024;-75
2023/05/07 09:32:07;;;;;;;12.98;9.48;;;20.90;99.90;;;;;;5052614;28;20025;-74
2023/05/07 09:34:34;;;;;;;11.60;9.93;;;21.00;99.90;;;;;;5051317;28;20032;-73
2023/05/07 09:37:04;;;;;;;16.83;11.43;;;21.00;99.90;;;;;;5051349;28;20025;-74
2023/05/07 09:39:43;;;;;;;15.35;11.23;;;21.00;99.90;;;;;;5056313;28;20035;-75
2023/05/07 09:42:10;;;;;;;14.50;11.57;;;21.00;99.90;;;;;;5055651;28;20510;-74
2023/05/07 09:44:36;;;;;;;13.32;11.70;;;21.10;99.90;;;;;;5049300;28;20025;-74
2023/05/07 09:47:05;;;;;;;13.18;11.77;;;21.20;99.90;;;;;;5054892;28;20547;-75
2023/05/07 09:49:34;;;;;;;10.90;9.77;;;21.20;99.90;;;;;;5048651;28;20025;-75
2023/05/07 09:52:01;;;;;;;8.85;7.95;;;21.30;99.90;;;;;;5053197;28;20040;-74
2023/05/07 09:54:31;;;;;;;11.77;9.10;;;21.50;99.90;;;;;;5033871;28;20114;-76
2023/05/07 09:56:58;;;;;;;12.10;8.95;;;21.60;99.90;;;;;;5052152;28;20025;-74
2023/05/07 09:59:25;;;;;;;9.45;7.85;;;21.70;99.90;;;;;;5033779;28;20032;-74
2023/05/07 10:01:53;;;;;;;10.27;8.48;;;21.80;99.90;;;;;;5049185;28;20036;-74
2023/05/07 10:04:20;;;;;;;7.50;6.00;;;21.80;99.90;;;;;;5048484;28;20031;-77
2023/05/07 10:06:46;;;;;;;8.40;7.55;;;21.70;99.90;;;;;;5050588;28;20021;-77
2023/05/07 10:09:13;;;;;;;7.47;5.40;;;21.70;99.90;;;;;;5055466;28;20017;-76
2023/05/07 10:11:40;;;;;;;8.13;4.82;;;21.80;99.90;;;;;;5052477;28;20037;-78
2023/05/07 10:14:06;;;;;;;9.23;5.80;;;22.10;99.90;;;;;;5049446;28;20123;-75
2023/05/07 10:16:36;;;;;;;8.20;5.47;;;22.20;99.90;;;;;;5032876;28;20108;-78
2023/05/07 10:19:05;;;;;;;8.05;7.20;;;22.40;99.90;;;;;;5034100;28;20057;-78
2023/05/07 10:21:36;;;;;;;9.75;7.13;;;22.40;99.90;;;;;;5056307;28;20063;-75
2023/05/07 10:24:13;;;;;;;10.63;7.75;;;22.20;99.90;;;;;;5054614;28;20031;-79
2023/05/07 10:26:45;;;;;;;9.02;6.80;;;22.00;99.90;;;;;;5049371;28;20033;-80
2023/05/07 10:29:35;;;;;;;9.27;7.20;;;22.10;99.90;;;;;;5053373;28;20013;-78
2023/05/07 10:32:33;;;;;;;8.43;6.38;;;22.20;99.90;;;;;;5049791;28;20052;-77
2023/05/07 10:35:03;;;;;;;9.85;7.55;;;22.30;99.90;;;;;;5052039;28;20079;-78
2023/05/07 10:37:29;;;;;;;10.73;7.22;;;22.20;99.90;;;;;;5048476;28;20017;-76
2023/05/07 10:39:55;;;;;;;8.52;7.50;;;22.40;99.90;;;;;;5052376;28;20427;-76
2023/05/07 10:42:20;;;;;;;12.88;8.25;;;22.50;99.90;;;;;;5052293;28;20032;-76
2023/05/07 10:44:46;;;;;;;8.13;7.30;;;22.80;99.90;;;;;;5055769;28;20503;-76
2023/05/07 10:47:18;;;;;;;9.27;6.65;;;23.00;99.90;;;;;;5054774;28;20082;-79
2023/05/07 10:49:44;;;;;;;9.00;6.35;;;23.30;99.90;;;;;;5057980;28;20028;-79
2023/05/07 10:52:15;;;;;;;10.40;7.03;;;23.60;99.90;;;;;;5054647;28;20079;-78
2023/05/07 10:54:43;;;;;;;6.45;5.75;;;23.90;99.90;;;;;;5050883;28;20040;-78
2023/05/07 10:57:30;;;;;;;5.82;4.18;;;24.00;99.90;;;;;;5049080;28;20028;-77
2023/05/07 10:59:56;;;;;;;5.70;4.57;;;24.00;99.90;;;;;;5053032;28;20028;-79
2023/05/07 11:02:22;;;;;;;5.82;4.50;;;24.10;99.90;;;;;;5038851;28;20040;-80
2023/05/07 11:05:20;;;;;;;7.10;3.85;;;23.90;99.90;;;;;;5063140;28;20040;-79
2023/05/07 11:07:59;;;;;;;8.38;4.43;;;23.80;99.90;;;;;;5033701;28;20029;-79
2023/05/07 11:10:51;;;;;;;4.68;3.60;;;23.90;99.90;;;;;;5043496;28;20025;-79
2023/05/07 11:13:18;;;;;;;6.63;4.03;;;23.80;99.90;;;;;;5032211;28;20044;-80
2023/05/07 11:15:46;;;;;;;8.65;5.00;;;23.80;99.90;;;;;;5053832;28;20100;-78
2023/05/07 11:18:14;;;;;;;8.10;5.30;;;23.60;99.90;;;;;;5032769;28;20051;-80
2023/05/07 11:20:56;;;;;;;6.05;4.15;;;23.50;99.90;;;;;;5058777;28;20480;-79
2023/05/07 11:23:33;;;;;;;5.45;4.25;;;23.40;99.90;;;;;;5055234;28;20043;-80
2023/05/07 11:26:10;;;;;;;5.82;3.30;;;23.30;99.90;;;;;;5055094;28;20028;-79
2023/05/07 11:28:41;;;;;;;6.20;2.88;;;23.20;99.90;;;;;;5051320;28;20032;-79
2023/05/07 11:31:07;;;;;;;5.97;2.90;;;23.10;99.90;;;;;;5052258;28;20024;-78
2023/05/07 11:33:34;;;;;;;6.80;3.20;;;23.10;99.90;;;;;;5043636;28;20025;-79
2023/05/07 11:36:02;;;;;;;4.93;3.05;;;22.90;99.90;;;;;;5035186;28;20021;-79
2023/05/07 11:38:29;;;;;;;4.45;3.42;;;22.90;99.90;;;;;;5053768;28;20465;-76
2023/05/07 11:41:00;;;;;;;5.43;2.80;;;22.80;99.90;;;;;;5054101;28;20099;-76
2023/05/07 11:43:27;;;;;;;6.88;3.22;;;22.80;99.90;;;;;;5049740;28;20031;-76
2023/05/07 11:45:53;;;;;;;7.88;5.88;;;22.70;99.90;;;;;;5052693;28;20033;-73
2023/05/07 11:48:21;;;;;;;7.65;5.00;;;22.40;99.90;;;;;;5049441;28;20025;-74
2023/05/07 11:50:59;;;;;;;9.63;3.92;;;22.10;99.90;;;;;;5054803;28;20028;-75
2023/05/07 11:53:26;;;;;;;7.82;4.25;;;21.90;99.90;;;;;;5038766;28;20051;-74
2023/05/07 11:55:58;;;;;;;5.63;3.42;;;21.60;99.90;;;;;;5046881;28;20028;-75
2023/05/07 11:58:27;;;;;;;8.43;3.13;;;21.40;99.90;;;;;;5050310;28;20085;-75
2023/05/07 12:00:54;;;;;;;10.48;4.00;;;21.20;99.90;;;;;;5048235;28;20021;-74
2023/05/07 12:03:20;;;;;;;13.43;5.05;;;21.10;99.90;;;;;;5046560;28;20028;-74
2023/05/07 12:05:47;;;;;;;8.50;4.30;;;21.20;99.90;;;;;;5051957;28;20550;-76
2023/05/07 12:08:17;;;;;;;8.13;3.97;;;21.10;99.90;;;;;;5050469;28;20029;-74
2023/05/07 12:10:44;;;;;;;20.75;11.55;;;21.00;99.90;;;;;;5049665;28;20072;-74
2023/05/07 12:13:16;;;;;;;17.42;9.60;;;21.00;99.90;;;;;;5051161;28;20040;-74
2023/05/07 12:15:42;;;;;;;14.32;8.38;;;20.70;99.90;;;;;;5033993;28;20405;-74
2023/05/07 12:18:08;;;;;;;16.67;6.68;;;20.70;99.90;;;;;;5048054;28;20086;-74
2023/05/07 12:20:35;;;;;;;10.32;5.50;;;20.70;99.90;;;;;;5054628;28;20036;-74
2023/05/07 12:23:02;;;;;;;9.52;6.03;;;20.60;99.90;;;;;;5047688;28;20021;-74
2023/05/07 12:25:31;;;;;;;15.15;4.80;;;20.50;99.90;;;;;;5056033;28;20469;-75
2023/05/07 12:28:00;;;;;;;6.00;3.58;;;20.60;99.90;;;;;;5034597;28;20033;-75
2023/05/07 12:30:25;;;;;;;10.23;5.03;;;20.60;99.90;;;;;;5046635;28;20089;-74
2023/05/07 12:32:54;;;;;;;10.90;5.22;;;20.60;99.90;;;;;;5050491;28;20570;-74